Shobdon, United Kingdom

1:05 PM GMT on February 08, 2016 (GMT +0000)
Lyonshall | | Change Station
CLOSE
Current Station
Personal Weather Station
Location: Lyonshall,
Elevation: 525 ft
Nearby Weather Stations

Elev 525 ft 52.21 °N, 2.97 °W | Updated 5 minutes ago

Light Rain Showers
Light Showers Rain
43.6 °F
Feels Like 39 °F
N
7.0
Wind Variable Wind from South
Gusts 7.0 mph

Today
High -- | Low -- °F
--% Chance of Precip.
Yesterday
High -- | Low -- °F
Precip. -- in
Pressure 29.00 in
Visibility 6.2 miles
Clouds Few 1600 ft
Scattered Clouds 2500 ft
Windchill 39 °F
Dew Point 41 °F
Humidity 90%
Rainfall 0.25 in
Snow Depth Not available.
7:41 AM 5:10 PM
Waning Crescent, 0% visible
METAR EGBJ 081250Z 26020G33KT 9999 -SHRA FEW016 SCT025 09/06 Q0982
Pressure 29.00 in
Visibility 6.2 miles
Clouds Few 1600 ft
Scattered Clouds 2500 ft
Windchill 39 °F
Dew Point 41 °F
Humidity 90%
Rainfall 0.25 in
Snow Depth Not available.
7:41 AM 5:10 PM
Waning Crescent, 0% visible
METAR EGBJ 081250Z 26020G33KT 9999 -SHRA FEW016 SCT025 09/06 Q0982

10-Day Weather Forecast

Almanac

Astronomy

Feb. 08, 2016 Rise Set
Actual Time
Civil Twilight
Nautical Twilight
Astronomical Twilight
Moon
Length of Visible Light
Length of Day
Tomorrow will be .
, % of the Moon is Illuminated

Today's Extremes

Country Highs Country Lows

Community

WunderPhotos

Upload Photos

1,891,434 photos uploaded!

WunderBlog® & News

Nearby

Air Quality

  Air Quality AQ Index Pollutant
Not available.

Snow Depth

Station Depth Elevation

Earthquake Activity

City Distance Mag. Time & Date
Minimum magnitude displayed is 2.5.

Coastal Water Temperatures

Place Temperature

Stations

Nearby Weather Stations

Station Location Temp. Windchill Dew Point Humidity Wind Precip. Elev Updated Type